| time (UTC) | temp C | wind direction | speed KPH | gust KPH | rain 1hr cm | rain 24hr cm | rain mn cm | humidity % | barometer mb |
| 20260508033141 | 11 | 217 | 3.2 | 11.3 | 0.00 | 0.71 | 0.08 | 94 | 1013.5 |
| 20260508031537 | 11 | 267 | 4.8 | 16.1 | 0.00 | 0.71 | 0.08 | 93 | 1013.3 |
| 20260508030041 | 12 | 239 | 4.8 | 11.3 | 0.00 | 0.71 | 0.08 | 93 | 1013.5 |
| 20260508024533 | 12 | 246 | 6.4 | 12.9 | 0.03 | 0.71 | 0.08 | 94 | 1013.3 |
| 20260508023031 | 12 | 225 | 4.8 | 11.3 | 0.03 | 0.71 | 0.08 | 93 | 1013.1 |
| 20260508021530 | 12 | 243 | 4.8 | 12.9 | 0.03 | 0.71 | 0.08 | 94 | 1013.0 |
| 20260508020033 | 12 | 238 | 6.4 | 14.5 | 0.03 | 0.71 | 0.08 | 93 | 1013.0 |
| 20260508014525 | 12 | 189 | 4.8 | 11.3 | 0.00 | 0.71 | 0.05 | 94 | 1013.1 |
| 20260508013026 | 12 | 182 | 3.2 | 8.0 | 0.00 | 0.71 | 0.05 | 94 | 1012.9 |
| 20260508011523 | 12 | 173 | 6.4 | 8.0 | 0.00 | 0.71 | 0.05 | 93 | 1012.9 |
| 20260508010026 | 12 | 173 | 3.2 | 6.4 | 0.00 | 0.71 | 0.05 | 93 | 1012.9 |
| 20260508004523 | 12 | 173 | 3.2 | 8.0 | 0.03 | 0.71 | 0.05 | 93 | 1012.9 |
| 20260508003021 | 12 | 173 | 0.0 | 3.2 | 0.03 | 0.71 | 0.05 | 93 | 1012.8 |
| 20260508001538 | 12 | 173 | 1.6 | 4.8 | 0.05 | 0.71 | 0.05 | 93 | 1012.9 |
| 20260508000021 | 12 | 173 | 3.2 | 4.8 | 0.05 | 0.71 | 0.05 | 93 | 1012.9 |
| 20260507234518 | 12 | 172 | 1.6 | 6.4 | 0.03 | 0.69 | 0.05 | 93 | 1012.7 |
| 20260507233018 | 12 | 172 | 4.8 | 8.0 | 0.03 | 0.69 | 0.05 | 93 | 1012.7 |
| 20260507231514 | 13 | 173 | 1.6 | 6.4 | 0.03 | 0.66 | 0.03 | 92 | 1012.9 |
| 20260507230011 | 13 | 173 | 4.8 | 8.0 | 0.03 | 0.66 | 0.03 | 93 | 1013.0 |
| 20260507224510 | 13 | 173 | 4.8 | 8.0 | 0.05 | 0.66 | 0.03 | 93 | 1013.2 |
| 20260507223008 | 13 | 219 | 1.6 | 4.8 | 0.05 | 0.66 | 0.03 | 92 | 1013.1 |
| 20260507221506 | 13 | 219 | 1.6 | 4.8 | 0.03 | 0.64 | 0.00 | 92 | 1013.0 |
| 20260507220007 | 13 | 219 | 3.2 | 6.4 | 0.05 | 0.64 | 0.00 | 92 | 1012.9 |
| 20260507214504 | 13 | 207 | 1.6 | 6.4 | 0.05 | 0.61 | 0.61 | 92 | 1012.9 |
| 20260507213002 | 13 | 207 | 3.2 | 11.3 | 0.08 | 0.61 | 0.61 | 92 | 1013.0 |
| 20260507211502 | 13 | 214 | 4.8 | 11.3 | 0.23 | 0.61 | 0.61 | 92 | 1012.8 |
| 20260507210059 | 13 | 219 | 4.8 | 12.9 | 0.23 | 0.61 | 0.61 | 92 | 1012.7 |
| 20260507204600 | 13 | 216 | 3.2 | 11.3 | 0.20 | 0.58 | 0.58 | 92 | 1012.5 |
| 20260507203054 | 13 | 224 | 4.8 | 11.3 | 0.15 | 0.53 | 0.53 | 91 | 1012.5 |
| 20260507201559 | 13 | 196 | 6.4 | 14.5 | 0.03 | 0.41 | 0.41 | 91 | 1012.4 |
| 20260507200103 | 13 | 195 | 6.4 | 14.5 | 0.00 | 0.38 | 0.38 | 91 | 1012.4 |
| 20260507194551 | 14 | 228 | 1.6 | 6.4 | 0.00 | 0.38 | 0.38 | 91 | 1012.2 |
| 20260507193052 | 14 | 229 | 1.6 | 4.8 | 0.00 | 0.38 | 0.38 | 90 | 1012.1 |
| 20260507191553 | 14 | 229 | 1.6 | 3.2 | 0.03 | 0.38 | 0.38 | 90 | 1011.8 |
| 20260507190052 | 14 | 229 | 0.0 | 3.2 | 0.05 | 0.38 | 0.38 | 89 | 1011.7 |
| 20260507184548 | 14 | 229 | 1.6 | 4.8 | 0.05 | 0.38 | 0.38 | 89 | 1011.5 |
| 20260507183043 | 14 | 229 | 1.6 | 8.0 | 0.05 | 0.38 | 0.38 | 88 | 1011.3 |
| 20260507181541 | 15 | 228 | 0.0 | 4.8 | 0.10 | 0.36 | 0.36 | 88 | 1011.2 |
| 20260507180040 | 15 | 228 | 0.0 | 4.8 | 0.15 | 0.33 | 0.33 | 87 | 1011.1 |
| 20260507174544 | 15 | 228 | 0.0 | 4.8 | 0.23 | 0.33 | 0.33 | 86 | 1010.9 |
| 20260507173037 | 15 | 228 | 0.0 | 4.8 | 0.23 | 0.33 | 0.33 | 84 | 1010.9 |
| 20260507171537 | 15 | 228 | 0.0 | 4.8 | 0.15 | 0.25 | 0.25 | 82 | 1010.8 |
| 20260507170042 | 15 | 228 | 1.6 | 6.4 | 0.10 | 0.20 | 0.20 | 81 | 1010.5 |
| 20260507164533 | 15 | 229 | 1.6 | 9.7 | 0.03 | 0.10 | 0.10 | 80 | 1010.3 |
| 20260507163032 | 16 | 192 | 1.6 | 11.3 | 0.03 | 0.10 | 0.10 | 81 | 1010.4 |
| 20260507161528 | 17 | 226 | 3.2 | 11.3 | 0.05 | 0.10 | 0.10 | 81 | 1010.3 |
| 20260507160027 | 17 | 182 | 4.8 | 9.7 | 0.05 | 0.10 | 0.10 | 79 | 1009.9 |
| 20260507154525 | 18 | 123 | 0.0 | 6.4 | 0.08 | 0.08 | 0.08 | 77 | 1010.0 |
| 20260507153024 | 18 | 117 | 1.6 | 4.8 | 0.08 | 0.08 | 0.08 | 74 | 1009.8 |
| 20260507151523 | 19 | 133 | 1.6 | 4.8 | 0.05 | 0.05 | 0.05 | 71 | 1009.8 |
| 20260507150031 | 20 | 112 | 3.2 | 6.4 | 0.05 | 0.05 | 0.05 | 66 | 1009.9 |
| 20260507144520 | 21 | 140 | 1.6 | 4.8 | 0.00 | 0.00 | 0.00 | 60 | 1009.7 |
| 20260507143025 | 21 | 132 | 3.2 | 16.1 | 0.00 | 0.00 | 0.00 | 58 | 1009.4 |
| 20260507141517 | 21 | 142 | 6.4 | 16.1 | 0.00 | 0.00 | 0.00 | 57 | 1009.2 |
| 20260507140116 | 21 | 164 | 1.6 | 12.9 | 0.00 | 0.00 | 0.00 | 57 | 1009.2 |
| 20260507134516 | 21 | 150 | 3.2 | 16.1 | 0.00 | 0.00 | 0.00 | 56 | 1009.1 |
| 20260507133016 | 22 | 180 | 11.3 | 19.3 | 0.00 | 0.00 | 0.00 | 55 | 1009.1 |
| 20260507131520 | 22 | 169 | 6.4 | 24.1 | 0.00 | 0.00 | 0.00 | 54 | 1009.0 |
| 20260507130015 | 22 | 173 | 9.7 | 24.1 | 0.00 | 0.00 | 0.00 | 54 | 1009.0 |
| 20260507124514 | 22 | 200 | 6.4 | 30.6 | 0.00 | 0.00 | 0.00 | 54 | 1008.9 |
| 20260507123014 | 22 | 148 | 4.8 | 17.7 | 0.00 | 0.00 | 0.00 | 55 | 1009.1 |
| 20260507121512 | 21 | 153 | 6.4 | 19.3 | 0.00 | 0.00 | 0.00 | 55 | 1009.2 |
| 20260507120023 | 21 | 181 | 8.0 | 25.7 | 0.00 | 0.00 | 0.00 | 53 | 1009.2 |
| 20260507114510 | 22 | 157 | 12.9 | 25.7 | 0.00 | 0.00 | 0.00 | 53 | 1009.1 |
| 20260507113009 | 22 | 140 | 12.9 | 22.5 | 0.00 | 0.00 | 0.00 | 55 | 1009.1 |
| 20260507111509 | 22 | 161 | 11.3 | 27.4 | 0.00 | 0.00 | 0.00 | 55 | 1008.9 |
| 20260507110007 | 22 | 132 | 4.8 | 22.5 | 0.00 | 0.00 | 0.00 | 55 | 1008.8 |
| 20260507104510 | 22 | 133 | 11.3 | 25.7 | 0.00 | 0.00 | 0.00 | 53 | 1008.7 |
| 20260507103006 | 22 | 126 | 11.3 | 27.4 | 0.00 | 0.00 | 0.00 | 51 | 1008.6 |
| 20260507101503 | 22 | 157 | 14.5 | 33.8 | 0.00 | 0.00 | 0.00 | 51 | 1008.5 |
| 20260507100001 | 22 | 129 | 12.9 | 29.0 | 0.00 | 0.00 | 0.00 | 51 | 1008.5 |
| 20260507094600 | 22 | 180 | 9.7 | 33.8 | 0.00 | 0.00 | 0.00 | 53 | 1008.5 |
| 20260507093059 | 22 | 136 | 9.7 | 22.5 | 0.00 | 0.00 | 0.00 | 54 | 1008.4 |
| 20260507091559 | 22 | 98 | 8.0 | 19.3 | 0.00 | 0.00 | 0.00 | 54 | 1008.3 |
| 20260507090057 | 22 | 131 | 8.0 | 24.1 | 0.00 | 0.00 | 0.00 | 54 | 1008.2 |
| 20260507084554 | 21 | 149 | 14.5 | 25.7 | 0.00 | 0.00 | 0.00 | 55 | 1008.1 |
| 20260507083048 | 21 | 123 | 11.3 | 24.1 | 0.00 | 0.00 | 0.00 | 57 | 1008.0 |
| 20260507081549 | 21 | 156 | 12.9 | 20.9 | 0.00 | 0.00 | 0.00 | 59 | 1007.9 |
| 20260507080048 | 21 | 132 | 8.0 | 19.3 | 0.00 | 0.00 | 0.00 | 60 | 1007.8 |
| 20260507073037 | 20 | 131 | 4.8 | 14.5 | 0.00 | 0.00 | 0.00 | 67 | 1007.9 |
| 20260507071535 | 19 | 118 | 3.2 | 11.3 | 0.00 | 0.00 | 0.00 | 67 | 1007.8 |
| 20260507070032 | 18 | 109 | 4.8 | 11.3 | 0.00 | 0.00 | 0.00 | 69 | 1007.6 |
| 20260507064529 | 18 | 136 | 4.8 | 11.3 | 0.00 | 0.00 | 0.00 | 71 | 1007.5 |
| 20260507063029 | 18 | 151 | 3.2 | 9.7 | 0.00 | 0.00 | 0.00 | 73 | 1007.5 |
| 20260507061524 | 17 | 190 | 1.6 | 11.3 | 0.00 | 0.00 | 0.00 | 73 | 1007.5 |
| 20260507060027 | 17 | 152 | 3.2 | 6.4 | 0.00 | 0.00 | 0.00 | 73 | 1007.3 |
| 20260507054521 | 17 | 153 | 3.2 | 6.4 | 0.00 | 0.00 | 0.00 | 73 | 1007.2 |
| 20260507053016 | 16 | 123 | 1.6 | 6.4 | 0.00 | 0.00 | 0.00 | 74 | 1007.2 |
| 20260507051515 | 16 | 124 | 1.6 | 4.8 | 0.00 | 0.00 | 0.00 | 74 | 1007.1 |
| 20260507050024 | 15 | 86 | 0.0 | 4.8 | 0.00 | 0.00 | 0.00 | 75 | 1007.1 |
| 20260507044510 | 15 | 26 | 0.0 | 3.2 | 0.00 | 0.00 | 0.00 | 76 | 1006.9 |
| 20260507043009 | 15 | 5 | 1.6 | 3.2 | 0.00 | 0.00 | 0.00 | 76 | 1006.6 |
| 20260507041508 | 14 | 84 | 0.0 | 3.2 | 0.00 | 0.00 | 0.00 | 78 | 1006.7 |
| 20260507040007 | 14 | 90 | 0.0 | 3.2 | 0.00 | 0.00 | 0.00 | 79 | 1006.5 |
| 20260507034506 | 14 | 86 | 0.0 | 1.6 | 0.00 | 0.00 | 0.00 | 78 | 1006.5 |